sensor_id;sensor_type;location;lat;lon;timestamp;pressure;altitude;pressure_sealevel;temperature;humidity
62789;BME280;66401;42.016;21.454;2023-06-05T00:02:00;98635.97;;;17.93;84.54
62789;BME280;66401;42.016;21.454;2023-06-05T00:04:26;98638.97;;;17.97;84.85
62789;BME280;66401;42.016;21.454;2023-06-05T00:06:53;98642.06;;;17.82;85.54
62789;BME280;66401;42.016;21.454;2023-06-05T00:09:18;98625.19;;;17.60;86.51
62789;BME280;66401;42.016;21.454;2023-06-05T00:11:44;98640.47;;;17.69;85.76
62789;BME280;66401;42.016;21.454;2023-06-05T00:14:10;98637.00;;;17.69;86.71
62789;BME280;66401;42.016;21.454;2023-06-05T00:16:35;98620.00;;;17.53;86.96
62789;BME280;66401;42.016;21.454;2023-06-05T00:19:01;98628.84;;;17.47;87.92
62789;BME280;66401;42.016;21.454;2023-06-05T00:21:27;98625.69;;;17.27;88.55
62789;BME280;66401;42.016;21.454;2023-06-05T00:23:53;98617.94;;;17.32;88.32
62789;BME280;66401;42.016;21.454;2023-06-05T00:26:19;98611.41;;;17.34;87.98
62789;BME280;66401;42.016;21.454;2023-06-05T00:28:44;98618.72;;;17.32;88.78
62789;BME280;66401;42.016;21.454;2023-06-05T00:31:10;98624.69;;;17.39;87.75
62789;BME280;66401;42.016;21.454;2023-06-05T00:33:38;98607.97;;;17.45;87.03
62789;BME280;66401;42.016;21.454;2023-06-05T00:36:04;98620.09;;;17.23;87.57
62789;BME280;66401;42.016;21.454;2023-06-05T00:38:30;98608.91;;;16.98;88.98
62789;BME280;66401;42.016;21.454;2023-06-05T00:40:55;98614.66;;;17.06;88.70
62789;BME280;66401;42.016;21.454;2023-06-05T00:43:21;98615.84;;;17.10;88.77
62789;BME280;66401;42.016;21.454;2023-06-05T00:45:46;98618.94;;;17.19;88.85
62789;BME280;66401;42.016;21.454;2023-06-05T00:48:12;98595.38;;;17.24;87.70
62789;BME280;66401;42.016;21.454;2023-06-05T00:50:38;98603.25;;;17.24;87.79
62789;BME280;66401;42.016;21.454;2023-06-05T00:53:06;98602.53;;;17.05;89.21
62789;BME280;66401;42.016;21.454;2023-06-05T00:55:32;98612.00;;;16.95;90.35
62789;BME280;66401;42.016;21.454;2023-06-05T00:57:59;98609.34;;;16.83;91.16
62789;BME280;66401;42.016;21.454;2023-06-05T01:00:26;98626.31;;;16.99;89.58
62789;BME280;66401;42.016;21.454;2023-06-05T01:02:52;98621.66;;;17.12;89.05
62789;BME280;66401;42.016;21.454;2023-06-05T01:05:24;98612.75;;;17.25;88.67
62789;BME280;66401;42.016;21.454;2023-06-05T01:07:51;98615.59;;;17.12;89.17
62789;BME280;66401;42.016;21.454;2023-06-05T01:10:18;98608.72;;;16.99;89.13
62789;BME280;66401;42.016;21.454;2023-06-05T01:13:07;98620.47;;;16.97;89.69
62789;BME280;66401;42.016;21.454;2023-06-05T01:15:35;98597.16;;;16.70;90.04
62789;BME280;66401;42.016;21.454;2023-06-05T01:18:03;98621.63;;;17.01;88.63
62789;BME280;66401;42.016;21.454;2023-06-05T01:20:34;98615.34;;;17.02;88.17
62789;BME280;66401;42.016;21.454;2023-06-05T01:23:03;98572.47;;;16.71;88.61
62789;BME280;66401;42.016;21.454;2023-06-05T01:25:29;98611.66;;;16.91;89.12
62789;BME280;66401;42.016;21.454;2023-06-05T01:28:25;98620.03;;;17.00;88.93
62789;BME280;66401;42.016;21.454;2023-06-05T01:30:59;98604.34;;;17.05;87.69
62789;BME280;66401;42.016;21.454;2023-06-05T01:35:53;98616.22;;;16.96;89.12
62789;BME280;66401;42.016;21.454;2023-06-05T01:38:21;98609.25;;;16.90;89.50
62789;BME280;66401;42.016;21.454;2023-06-05T01:40:49;98614.94;;;16.86;90.21
62789;BME280;66401;42.016;21.454;2023-06-05T01:43:16;98613.06;;;16.75;90.72
62789;BME280;66401;42.016;21.454;2023-06-05T01:45:43;98586.66;;;16.70;89.84
62789;BME280;66401;42.016;21.454;2023-06-05T01:48:09;98610.97;;;16.96;88.85
62789;BME280;66401;42.016;21.454;2023-06-05T01:50:36;98620.47;;;16.97;89.08
62789;BME280;66401;42.016;21.454;2023-06-05T01:53:03;98589.84;;;16.54;90.23
62789;BME280;66401;42.016;21.454;2023-06-05T01:55:30;98613.66;;;16.59;90.99
62789;BME280;66401;42.016;21.454;2023-06-05T01:57:56;98607.50;;;16.83;88.99
62789;BME280;66401;42.016;21.454;2023-06-05T02:00:22;98620.56;;;16.90;89.07
62789;BME280;66401;42.016;21.454;2023-06-05T02:02:49;98622.06;;;16.98;88.46
62789;BME280;66401;42.016;21.454;2023-06-05T02:05:16;98614.63;;;16.95;88.39
62789;BME280;66401;42.016;21.454;2023-06-05T02:07:46;98607.34;;;16.78;89.31
62789;BME280;66401;42.016;21.454;2023-06-05T02:10:19;98614.38;;;16.66;90.40
62789;BME280;66401;42.016;21.454;2023-06-05T02:12:45;98598.16;;;16.69;89.33
62789;BME280;66401;42.016;21.454;2023-06-05T02:15:10;98597.56;;;16.85;89.40
62789;BME280;66401;42.016;21.454;2023-06-05T02:17:41;98588.06;;;16.66;90.58
62789;BME280;66401;42.016;21.454;2023-06-05T02:20:11;98593.84;;;16.75;89.77
62789;BME280;66401;42.016;21.454;2023-06-05T02:22:38;98573.34;;;16.47;90.73
62789;BME280;66401;42.016;21.454;2023-06-05T02:25:05;98575.38;;;16.63;89.42
62789;BME280;66401;42.016;21.454;2023-06-05T02:27:30;98605.59;;;16.91;88.73
62789;BME280;66401;42.016;21.454;2023-06-05T02:29:56;98584.41;;;16.67;89.47
62789;BME280;66401;42.016;21.454;2023-06-05T02:32:22;98596.88;;;16.60;90.61
62789;BME280;66401;42.016;21.454;2023-06-05T02:34:51;98607.69;;;16.70;90.32
62789;BME280;66401;42.016;21.454;2023-06-05T02:37:16;98604.88;;;16.83;89.14
62789;BME280;66401;42.016;21.454;2023-06-05T02:39:42;98594.59;;;16.82;88.93
62789;BME280;66401;42.016;21.454;2023-06-05T02:42:07;98608.69;;;16.69;89.54
62789;BME280;66401;42.016;21.454;2023-06-05T02:44:37;98615.94;;;16.74;89.49
62789;BME280;66401;42.016;21.454;2023-06-05T02:47:04;98603.13;;;16.77;89.91
62789;BME280;66401;42.016;21.454;2023-06-05T02:49:30;98606.22;;;16.74;89.47
62789;BME280;66401;42.016;21.454;2023-06-05T02:51:59;98618.22;;;16.70;90.35
62789;BME280;66401;42.016;21.454;2023-06-05T02:54:25;98605.63;;;16.72;89.74
62789;BME280;66401;42.016;21.454;2023-06-05T02:56:54;98607.63;;;16.88;88.80
62789;BME280;66401;42.016;21.454;2023-06-05T02:59:22;98613.94;;;16.69;90.13
62789;BME280;66401;42.016;21.454;2023-06-05T03:01:50;98608.50;;;16.71;90.41
62789;BME280;66401;42.016;21.454;2023-06-05T03:04:16;98598.91;;;16.76;89.40
62789;BME280;66401;42.016;21.454;2023-06-05T03:06:47;98600.94;;;16.74;88.90
62789;BME280;66401;42.016;21.454;2023-06-05T03:09:13;98599.03;;;16.81;88.94
62789;BME280;66401;42.016;21.454;2023-06-05T03:11:38;98611.25;;;16.76;89.65
62789;BME280;66401;42.016;21.454;2023-06-05T03:14:04;98601.66;;;16.81;89.41
62789;BME280;66401;42.016;21.454;2023-06-05T03:16:30;98616.72;;;16.74;90.19
62789;BME280;66401;42.016;21.454;2023-06-05T03:19:03;98609.25;;;16.90;88.81
62789;BME280;66401;42.016;21.454;2023-06-05T03:21:28;98615.47;;;17.07;87.94
62789;BME280;66401;42.016;21.454;2023-06-05T03:23:54;98616.81;;;16.98;88.10
62789;BME280;66401;42.016;21.454;2023-06-05T03:26:20;98609.00;;;16.79;89.08
62789;BME280;66401;42.016;21.454;2023-06-05T03:28:47;98604.59;;;16.73;89.04
62789;BME280;66401;42.016;21.454;2023-06-05T03:31:13;98620.97;;;16.75;89.63
62789;BME280;66401;42.016;21.454;2023-06-05T03:33:38;98617.78;;;16.85;89.94
62789;BME280;66401;42.016;21.454;2023-06-05T03:36:04;98603.19;;;16.89;89.38
62789;BME280;66401;42.016;21.454;2023-06-05T03:38:30;98620.97;;;17.17;88.49
62789;BME280;66401;42.016;21.454;2023-06-05T03:40:55;98619.75;;;17.20;88.20
62789;BME280;66401;42.016;21.454;2023-06-05T03:43:21;98616.56;;;17.29;87.37
62789;BME280;66401;42.016;21.454;2023-06-05T03:45:50;98610.97;;;17.37;86.50
62789;BME280;66401;42.016;21.454;2023-06-05T03:48:17;98620.81;;;17.42;87.12
62789;BME280;66401;42.016;21.454;2023-06-05T03:50:45;98620.09;;;17.23;88.84
62789;BME280;66401;42.016;21.454;2023-06-05T03:53:11;98611.84;;;17.20;88.12
62789;BME280;66401;42.016;21.454;2023-06-05T03:55:39;98632.09;;;17.19;89.99
62789;BME280;66401;42.016;21.454;2023-06-05T03:58:14;98630.16;;;17.26;89.05
62789;BME280;66401;42.016;21.454;2023-06-05T04:00:45;98627.19;;;17.23;88.66
62789;BME280;66401;42.016;21.454;2023-06-05T04:03:12;98623.09;;;17.38;88.05
62789;BME280;66401;42.016;21.454;2023-06-05T04:05:41;98624.94;;;17.50;87.34
62789;BME280;66401;42.016;21.454;2023-06-05T04:08:08;98620.47;;;17.50;87.92
62789;BME280;66401;42.016;21.454;2023-06-05T04:10:35;98628.38;;;17.50;87.53
62789;BME280;66401;42.016;21.454;2023-06-05T04:13:01;98617.16;;;17.43;88.78
62789;BME280;66401;42.016;21.454;2023-06-05T04:15:27;98606.28;;;17.39;88.28
62789;BME280;66401;42.016;21.454;2023-06-05T04:17:53;98609.59;;;17.46;87.88
62789;BME280;66401;42.016;21.454;2023-06-05T04:20:18;98620.75;;;17.72;87.04
62789;BME280;66401;42.016;21.454;2023-06-05T04:22:45;98613.78;;;17.78;86.04
62789;BME280;66401;42.016;21.454;2023-06-05T04:25:13;98601.97;;;17.80;85.68
62789;BME280;66401;42.016;21.454;2023-06-05T04:27:41;98601.16;;;17.91;85.21
62789;BME280;66401;42.016;21.454;2023-06-05T04:30:07;98623.13;;;17.85;87.69
62789;BME280;66401;42.016;21.454;2023-06-05T04:32:34;98612.75;;;17.79;87.18
62789;BME280;66401;42.016;21.454;2023-06-05T04:35:03;98623.28;;;17.90;87.55
62789;BME280;66401;42.016;21.454;2023-06-05T04:37:28;98610.44;;;17.94;86.46
62789;BME280;66401;42.016;21.454;2023-06-05T04:39:54;98607.81;;;18.06;85.10
62789;BME280;66401;42.016;21.454;2023-06-05T04:42:20;98601.03;;;18.10;83.68
62789;BME280;66401;42.016;21.454;2023-06-05T04:44:57;98628.38;;;18.32;83.95
62789;BME280;66401;42.016;21.454;2023-06-05T04:47:23;98619.00;;;18.13;84.86
62789;BME280;66401;42.016;21.454;2023-06-05T04:49:49;98634.16;;;17.82;86.35
62789;BME280;66401;42.016;21.454;2023-06-05T04:52:17;98626.56;;;17.62;88.00
62789;BME280;66401;42.016;21.454;2023-06-05T04:55:02;98630.59;;;17.88;86.65
62789;BME280;66401;42.016;21.454;2023-06-05T04:57:28;98610.31;;;18.00;85.53
62789;BME280;66401;42.016;21.454;2023-06-05T04:59:54;98612.91;;;17.54;88.95
62789;BME280;66401;42.016;21.454;2023-06-05T05:02:21;98617.16;;;17.55;88.38
62789;BME280;66401;42.016;21.454;2023-06-05T05:04:47;98613.28;;;17.69;88.15
62789;BME280;66401;42.016;21.454;2023-06-05T05:07:13;98615.34;;;17.67;88.10
62789;BME280;66401;42.016;21.454;2023-06-05T05:09:43;98626.81;;;18.08;86.56
62789;BME280;66401;42.016;21.454;2023-06-05T05:12:09;98612.09;;;18.35;85.58
62789;BME280;66401;42.016;21.454;2023-06-05T05:14:35;98620.34;;;18.39;84.25
62789;BME280;66401;42.016;21.454;2023-06-05T05:17:02;98642.59;;;18.31;84.73
62789;BME280;66401;42.016;21.454;2023-06-05T05:19:28;98624.38;;;18.29;84.20
62789;BME280;66401;42.016;21.454;2023-06-05T05:21:53;98617.69;;;18.39;83.70
62789;BME280;66401;42.016;21.454;2023-06-05T05:24:20;98625.75;;;18.60;82.25
62789;BME280;66401;42.016;21.454;2023-06-05T05:26:45;98597.78;;;18.59;81.98
62789;BME280;66401;42.016;21.454;2023-06-05T05:29:11;98622.00;;;18.68;83.13
62789;BME280;66401;42.016;21.454;2023-06-05T05:31:36;98636.91;;;18.63;83.31
62789;BME280;66401;42.016;21.454;2023-06-05T05:34:02;98616.97;;;18.15;85.69
62789;BME280;66401;42.016;21.454;2023-06-05T05:36:28;98620.56;;;18.37;85.80
62789;BME280;66401;42.016;21.454;2023-06-05T05:38:54;98624.88;;;18.67;84.55
62789;BME280;66401;42.016;21.454;2023-06-05T05:41:19;98631.78;;;18.44;86.04
62789;BME280;66401;42.016;21.454;2023-06-05T05:43:47;98622.41;;;18.77;83.39
62789;BME280;66401;42.016;21.454;2023-06-05T05:46:13;98613.22;;;18.39;84.20
62789;BME280;66401;42.016;21.454;2023-06-05T05:48:39;98606.69;;;18.82;82.20
62789;BME280;66401;42.016;21.454;2023-06-05T05:51:05;98606.97;;;18.69;83.61
62789;BME280;66401;42.016;21.454;2023-06-05T05:53:31;98623.63;;;19.14;79.38
62789;BME280;66401;42.016;21.454;2023-06-05T05:55:57;98617.28;;;19.15;78.38
62789;BME280;66401;42.016;21.454;2023-06-05T05:58:22;98628.38;;;19.01;78.77
62789;BME280;66401;42.016;21.454;2023-06-05T06:00:48;98614.28;;;19.24;78.92
62789;BME280;66401;42.016;21.454;2023-06-05T06:03:14;98619.25;;;19.54;77.87
62789;BME280;66401;42.016;21.454;2023-06-05T06:05:40;98609.72;;;19.53;77.10
62789;BME280;66401;42.016;21.454;2023-06-05T06:08:05;98618.78;;;19.73;76.78
62789;BME280;66401;42.016;21.454;2023-06-05T06:10:32;98626.34;;;19.87;75.50
62789;BME280;66401;42.016;21.454;2023-06-05T06:12:58;98607.84;;;19.87;75.57
62789;BME280;66401;42.016;21.454;2023-06-05T06:15:23;98613.56;;;20.17;74.83
62789;BME280;66401;42.016;21.454;2023-06-05T06:17:49;98610.47;;;20.25;73.98
62789;BME280;66401;42.016;21.454;2023-06-05T06:20:16;98606.09;;;20.36;74.14
62789;BME280;66401;42.016;21.454;2023-06-05T06:22:42;98627.44;;;20.46;73.55
62789;BME280;66401;42.016;21.454;2023-06-05T06:25:10;98605.03;;;20.54;73.30
62789;BME280;66401;42.016;21.454;2023-06-05T06:27:36;98635.47;;;20.78;72.31
62789;BME280;66401;42.016;21.454;2023-06-05T06:30:03;98641.75;;;20.72;71.44
62789;BME280;66401;42.016;21.454;2023-06-05T06:32:29;98643.91;;;20.75;73.41
62789;BME280;66401;42.016;21.454;2023-06-05T06:34:55;98622.75;;;20.75;72.33
62789;BME280;66401;42.016;21.454;2023-06-05T06:37:21;98630.78;;;20.85;72.08
62789;BME280;66401;42.016;21.454;2023-06-05T06:39:48;98643.13;;;20.53;71.59
62789;BME280;66401;42.016;21.454;2023-06-05T06:42:14;98631.66;;;20.69;71.93
62789;BME280;66401;42.016;21.454;2023-06-05T06:44:41;98627.59;;;20.40;70.79
62789;BME280;66401;42.016;21.454;2023-06-05T06:47:07;98640.31;;;19.82;75.33
62789;BME280;66401;42.016;21.454;2023-06-05T06:49:33;98631.91;;;20.46;74.58
62789;BME280;66401;42.016;21.454;2023-06-05T06:52:00;98626.38;;;20.69;72.47
62789;BME280;66401;42.016;21.454;2023-06-05T06:54:25;98623.41;;;20.88;71.45
62789;BME280;66401;42.016;21.454;2023-06-05T06:56:54;98634.38;;;21.01;71.35
62789;BME280;66401;42.016;21.454;2023-06-05T06:59:19;98612.56;;;21.21;70.87
62789;BME280;66401;42.016;21.454;2023-06-05T07:01:46;98613.78;;;21.35;71.90
62789;BME280;66401;42.016;21.454;2023-06-05T07:04:15;98598.78;;;21.51;70.56
62789;BME280;66401;42.016;21.454;2023-06-05T07:06:46;98602.34;;;21.62;69.70
62789;BME280;66401;42.016;21.454;2023-06-05T07:09:13;98600.78;;;21.71;71.54
62789;BME280;66401;42.016;21.454;2023-06-05T07:11:39;98620.75;;;21.84;69.04
62789;BME280;66401;42.016;21.454;2023-06-05T07:14:04;98619.00;;;21.57;69.11
62789;BME280;66401;42.016;21.454;2023-06-05T07:16:31;98605.00;;;21.67;69.97
62789;BME280;66401;42.016;21.454;2023-06-05T07:18:56;98608.03;;;21.86;68.42
62789;BME280;66401;42.016;21.454;2023-06-05T07:21:22;98586.84;;;21.49;68.91
62789;BME280;66401;42.016;21.454;2023-06-05T07:23:50;98610.41;;;21.82;69.17
62789;BME280;66401;42.016;21.454;2023-06-05T07:26:20;98616.00;;;22.38;71.37
62789;BME280;66401;42.016;21.454;2023-06-05T07:28:46;98619.31;;;22.71;70.01
62789;BME280;66401;42.016;21.454;2023-06-05T07:31:13;98571.91;;;22.22;66.28
62789;BME280;66401;42.016;21.454;2023-06-05T07:33:40;98622.44;;;22.52;66.34
62789;BME280;66401;42.016;21.454;2023-06-05T07:36:06;98620.03;;;21.98;65.43
62789;BME280;66401;42.016;21.454;2023-06-05T07:38:33;98619.59;;;22.07;67.58
62789;BME280;66401;42.016;21.454;2023-06-05T07:40:58;98612.22;;;21.77;67.25
62789;BME280;66401;42.016;21.454;2023-06-05T07:43:27;98607.13;;;21.70;66.09
62789;BME280;66401;42.016;21.454;2023-06-05T07:45:52;98621.22;;;22.18;67.19
62789;BME280;66401;42.016;21.454;2023-06-05T07:48:18;98634.53;;;22.28;66.93
62789;BME280;66401;42.016;21.454;2023-06-05T07:50:43;98610.25;;;22.62;65.10
62789;BME280;66401;42.016;21.454;2023-06-05T07:53:09;98600.81;;;23.06;65.49
62789;BME280;66401;42.016;21.454;2023-06-05T07:55:36;98621.31;;;23.26;62.81
62789;BME280;66401;42.016;21.454;2023-06-05T07:58:02;98628.88;;;22.77;63.88
62789;BME280;66401;42.016;21.454;2023-06-05T08:00:28;98605.13;;;21.82;66.67
62789;BME280;66401;42.016;21.454;2023-06-05T08:02:54;98617.03;;;22.22;65.56
62789;BME280;66401;42.016;21.454;2023-06-05T08:05:23;98602.28;;;22.56;62.59
62789;BME280;66401;42.016;21.454;2023-06-05T08:07:49;98610.28;;;22.72;62.22
62789;BME280;66401;42.016;21.454;2023-06-05T08:10:14;98607.63;;;22.77;62.73
62789;BME280;66401;42.016;21.454;2023-06-05T08:12:40;98616.72;;;22.96;61.83
62789;BME280;66401;42.016;21.454;2023-06-05T08:15:06;98592.84;;;23.01;62.66
62789;BME280;66401;42.016;21.454;2023-06-05T08:17:33;98613.56;;;23.25;61.80
62789;BME280;66401;42.016;21.454;2023-06-05T08:19:58;98607.72;;;23.07;61.26
62789;BME280;66401;42.016;21.454;2023-06-05T08:22:25;98599.47;;;23.14;61.28
62789;BME280;66401;42.016;21.454;2023-06-05T08:24:50;98594.19;;;23.29;61.54
62789;BME280;66401;42.016;21.454;2023-06-05T08:27:20;98584.34;;;23.20;60.50
62789;BME280;66401;42.016;21.454;2023-06-05T08:29:45;98592.56;;;23.33;61.86
62789;BME280;66401;42.016;21.454;2023-06-05T08:32:11;98611.97;;;23.44;59.88
62789;BME280;66401;42.016;21.454;2023-06-05T08:34:36;98578.25;;;23.19;59.59
62789;BME280;66401;42.016;21.454;2023-06-05T08:37:02;98595.78;;;23.56;62.25
62789;BME280;66401;42.016;21.454;2023-06-05T08:39:28;98577.16;;;23.76;60.21
62789;BME280;66401;42.016;21.454;2023-06-05T08:42:00;98588.28;;;23.83;57.05
62789;BME280;66401;42.016;21.454;2023-06-05T08:44:28;98574.22;;;23.42;56.64
62789;BME280;66401;42.016;21.454;2023-06-05T08:46:59;98590.16;;;22.86;58.15
62789;BME280;66401;42.016;21.454;2023-06-05T08:49:26;98583.81;;;23.43;59.18
62789;BME280;66401;42.016;21.454;2023-06-05T08:51:57;98575.03;;;23.63;58.92
62789;BME280;66401;42.016;21.454;2023-06-05T08:54:39;98601.47;;;24.19;57.74
62789;BME280;66401;42.016;21.454;2023-06-05T08:57:06;98598.53;;;24.25;56.70
62789;BME280;66401;42.016;21.454;2023-06-05T08:59:33;98591.00;;;24.48;56.50
62789;BME280;66401;42.016;21.454;2023-06-05T09:01:59;98575.75;;;24.59;57.04
62789;BME280;66401;42.016;21.454;2023-06-05T09:04:25;98591.41;;;24.70;55.34
62789;BME280;66401;42.016;21.454;2023-06-05T09:06:58;98564.19;;;24.29;55.33
62789;BME280;66401;42.016;21.454;2023-06-05T09:09:24;98594.03;;;24.75;53.73
62789;BME280;66401;42.016;21.454;2023-06-05T09:12:07;98572.56;;;25.35;56.18
62789;BME280;66401;42.016;21.454;2023-06-05T09:14:34;98581.06;;;24.64;54.98
62789;BME280;66401;42.016;21.454;2023-06-05T09:17:01;98585.81;;;24.72;54.54
62789;BME280;66401;42.016;21.454;2023-06-05T09:19:40;98582.03;;;25.22;55.70
62789;BME280;66401;42.016;21.454;2023-06-05T09:22:07;98586.94;;;25.05;53.22
62789;BME280;66401;42.016;21.454;2023-06-05T09:24:33;98575.63;;;25.52;53.74
62789;BME280;66401;42.016;21.454;2023-06-05T09:27:00;98577.69;;;25.31;52.45
62789;BME280;66401;42.016;21.454;2023-06-05T09:29:27;98560.22;;;25.15;53.66
62789;BME280;66401;42.016;21.454;2023-06-05T09:31:57;98576.44;;;25.19;53.51
62789;BME280;66401;42.016;21.454;2023-06-05T09:34:25;98565.16;;;25.32;53.20
62789;BME280;66401;42.016;21.454;2023-06-05T09:36:51;98567.50;;;25.38;53.77
62789;BME280;66401;42.016;21.454;2023-06-05T09:42:40;98558.72;;;25.33;57.68
62789;BME280;66401;42.016;21.454;2023-06-05T09:45:06;98531.06;;;25.53;54.37
62789;BME280;66401;42.016;21.454;2023-06-05T09:47:31;98559.53;;;25.86;54.20
62789;BME280;66401;42.016;21.454;2023-06-05T09:49:57;98559.50;;;25.91;52.25
62789;BME280;66401;42.016;21.454;2023-06-05T09:52:23;98541.78;;;25.77;51.73
62789;BME280;66401;42.016;21.454;2023-06-05T09:54:49;98542.16;;;25.07;51.63
62789;BME280;66401;42.016;21.454;2023-06-05T09:57:18;98543.66;;;25.18;51.97
62789;BME280;66401;42.016;21.454;2023-06-05T09:59:53;98545.00;;;25.21;53.38
62789;BME280;66401;42.016;21.454;2023-06-05T10:02:20;98545.84;;;25.69;52.23
62789;BME280;66401;42.016;21.454;2023-06-05T10:04:49;98536.50;;;25.95;53.43
62789;BME280;66401;42.016;21.454;2023-06-05T10:07:17;98543.94;;;25.99;51.26
62789;BME280;66401;42.016;21.454;2023-06-05T10:09:44;98540.00;;;26.15;51.64
62789;BME280;66401;42.016;21.454;2023-06-05T10:12:15;98525.88;;;26.33;53.06
62789;BME280;66401;42.016;21.454;2023-06-05T10:14:42;98532.50;;;26.17;51.75
62789;BME280;66401;42.016;21.454;2023-06-05T10:17:08;98523.50;;;26.32;49.70
62789;BME280;66401;42.016;21.454;2023-06-05T10:19:34;98526.69;;;26.52;50.71
62789;BME280;66401;42.016;21.454;2023-06-05T10:22:00;98524.88;;;26.29;49.86
62789;BME280;66401;42.016;21.454;2023-06-05T10:24:38;98517.09;;;26.51;50.59
62789;BME280;66401;42.016;21.454;2023-06-05T10:35:21;98498.84;;;26.59;49.93
62789;BME280;66401;42.016;21.454;2023-06-05T10:40:48;98493.03;;;26.70;49.51
62789;BME280;66401;42.016;21.454;2023-06-05T10:45:52;98485.41;;;25.83;52.62
62789;BME280;66401;42.016;21.454;2023-06-05T10:48:18;98490.84;;;26.40;50.61
62789;BME280;66401;42.016;21.454;2023-06-05T10:50:44;98488.22;;;26.53;52.04
62789;BME280;66401;42.016;21.454;2023-06-05T10:59:26;98465.69;;;26.60;51.67
62789;BME280;66401;42.016;21.454;2023-06-05T11:12:27;98453.94;;;26.93;51.58
62789;BME280;66401;42.016;21.454;2023-06-05T11:15:14;98452.25;;;26.97;50.86
62789;BME280;66401;42.016;21.454;2023-06-05T11:17:46;98442.69;;;27.10;49.90
62789;BME280;66401;42.016;21.454;2023-06-05T11:27:48;98430.94;;;26.92;49.84
62789;BME280;66401;42.016;21.454;2023-06-05T11:30:14;98420.50;;;27.09;50.19
62789;BME280;66401;42.016;21.454;2023-06-05T11:32:41;98436.16;;;27.30;49.00
62789;BME280;66401;42.016;21.454;2023-06-05T11:35:08;98431.34;;;27.32;49.26
62789;BME280;66401;42.016;21.454;2023-06-05T11:37:37;98425.06;;;27.36;49.01
62789;BME280;66401;42.016;21.454;2023-06-05T11:40:04;98421.13;;;27.34;48.93
62789;BME280;66401;42.016;21.454;2023-06-05T11:42:34;98421.91;;;27.34;49.87
62789;BME280;66401;42.016;21.454;2023-06-05T11:44:59;98417.34;;;27.07;49.48
62789;BME280;66401;42.016;21.454;2023-06-05T11:47:28;98414.41;;;26.90;49.21
62789;BME280;66401;42.016;21.454;2023-06-05T11:50:13;98411.91;;;26.80;50.09
62789;BME280;66401;42.016;21.454;2023-06-05T11:52:40;98414.97;;;26.22;51.50
62789;BME280;66401;42.016;21.454;2023-06-05T11:57:42;98407.78;;;27.01;50.72
62789;BME280;66401;42.016;21.454;2023-06-05T12:00:09;98405.69;;;26.85;49.20
62789;BME280;66401;42.016;21.454;2023-06-05T12:02:37;98403.22;;;26.88;50.11
62789;BME280;66401;42.016;21.454;2023-06-05T12:05:05;98396.75;;;27.22;48.86
62789;BME280;66401;42.016;21.454;2023-06-05T12:07:31;98399.13;;;27.09;50.59
62789;BME280;66401;42.016;21.454;2023-06-05T12:10:03;98377.94;;;26.67;50.30
62789;BME280;66401;42.016;21.454;2023-06-05T12:12:29;98397.13;;;26.36;50.19
62789;BME280;66401;42.016;21.454;2023-06-05T12:14:55;98386.75;;;26.35;50.15
62789;BME280;66401;42.016;21.454;2023-06-05T12:17:21;98385.91;;;26.53;50.72
62789;BME280;66401;42.016;21.454;2023-06-05T12:19:54;98372.75;;;26.24;51.08
62789;BME280;66401;42.016;21.454;2023-06-05T12:22:20;98370.91;;;26.57;50.24
62789;BME280;66401;42.016;21.454;2023-06-05T12:24:46;98363.69;;;26.58;50.69
62789;BME280;66401;42.016;21.454;2023-06-05T12:27:12;98363.50;;;26.68;49.04
62789;BME280;66401;42.016;21.454;2023-06-05T12:29:38;98369.81;;;27.32;49.16
62789;BME280;66401;42.016;21.454;2023-06-05T12:32:20;98363.28;;;27.24;47.67
62789;BME280;66401;42.016;21.454;2023-06-05T12:34:48;98357.72;;;27.21;48.04
62789;BME280;66401;42.016;21.454;2023-06-05T12:37:26;98340.31;;;27.09;47.86
62789;BME280;66401;42.016;21.454;2023-06-05T12:39:57;98364.94;;;27.48;48.67
62789;BME280;66401;42.016;21.454;2023-06-05T12:42:27;98356.91;;;27.61;47.04
62789;BME280;66401;42.016;21.454;2023-06-05T12:44:53;98354.94;;;27.53;46.83
62789;BME280;66401;42.016;21.454;2023-06-05T12:47:19;98342.63;;;27.80;47.31
62789;BME280;66401;42.016;21.454;2023-06-05T12:49:46;98340.84;;;27.61;45.94
62789;BME280;66401;42.016;21.454;2023-06-05T12:52:12;98335.09;;;27.68;46.53
62789;BME280;66401;42.016;21.454;2023-06-05T12:54:38;98328.97;;;27.40;46.55
62789;BME280;66401;42.016;21.454;2023-06-05T12:57:06;98338.66;;;27.63;46.47
62789;BME280;66401;42.016;21.454;2023-06-05T12:59:33;98324.78;;;27.61;46.37
62789;BME280;66401;42.016;21.454;2023-06-05T13:01:58;98323.41;;;27.50;46.30
62789;BME280;66401;42.016;21.454;2023-06-05T13:04:24;98320.94;;;27.40;46.42
62789;BME280;66401;42.016;21.454;2023-06-05T13:06:49;98312.56;;;26.78;48.04
62789;BME280;66401;42.016;21.454;2023-06-05T13:09:16;98317.50;;;26.85;47.51
62789;BME280;66401;42.016;21.454;2023-06-05T13:11:41;98319.44;;;26.51;48.42
62789;BME280;66401;42.016;21.454;2023-06-05T13:14:07;98318.97;;;26.31;47.84
62789;BME280;66401;42.016;21.454;2023-06-05T13:16:33;98321.91;;;26.15;48.04
62789;BME280;66401;42.016;21.454;2023-06-05T13:18:58;98322.44;;;25.99;49.17
62789;BME280;66401;42.016;21.454;2023-06-05T13:21:24;98315.88;;;25.72;49.79
62789;BME280;66401;42.016;21.454;2023-06-05T13:23:50;98318.22;;;25.55;49.73
62789;BME280;66401;42.016;21.454;2023-06-05T13:26:16;98320.31;;;25.39;51.02
62789;BME280;66401;42.016;21.454;2023-06-05T13:28:41;98327.44;;;25.44;51.08
62789;BME280;66401;42.016;21.454;2023-06-05T13:31:09;98323.03;;;25.34;51.84
62789;BME280;66401;42.016;21.454;2023-06-05T13:33:36;98325.09;;;25.18;52.12
62789;BME280;66401;42.016;21.454;2023-06-05T13:36:02;98319.88;;;25.08;52.53
62789;BME280;66401;42.016;21.454;2023-06-05T13:38:27;98315.91;;;25.29;52.02